sensor_id;sensor_type;location;lat;lon;timestamp;pressure;altitude;pressure_sealevel;temperature;humidity
79729;BME280;69218;52.132;5.418;2023-11-21T00:01:06;101191.50;;;6.45;100.00
79729;BME280;69218;52.132;5.418;2023-11-21T00:03:35;101201.06;;;6.44;100.00
79729;BME280;69218;52.132;5.418;2023-11-21T00:06:02;101198.38;;;6.46;100.00
79729;BME280;69218;52.132;5.418;2023-11-21T00:08:29;101200.25;;;6.44;100.00
79729;BME280;69218;52.132;5.418;2023-11-21T00:10:56;101206.28;;;6.44;100.00
79729;BME280;69218;52.132;5.418;2023-11-21T00:13:23;101220.16;;;6.45;100.00
79729;BME280;69218;52.132;5.418;2023-11-21T00:15:50;101211.50;;;6.44;100.00
79729;BME280;69218;52.132;5.418;2023-11-21T00:18:17;101211.50;;;6.44;100.00
79729;BME280;69218;52.132;5.418;2023-11-21T00:20:43;101213.16;;;6.45;100.00
79729;BME280;69218;52.132;5.418;2023-11-21T00:23:10;101217.53;;;6.45;100.00
79729;BME280;69218;52.132;5.418;2023-11-21T00:25:36;101221.91;;;6.44;100.00
79729;BME280;69218;52.132;5.418;2023-11-21T00:28:03;101219.31;;;6.44;100.00
79729;BME280;69218;52.132;5.418;2023-11-21T00:30:30;101226.38;;;6.42;100.00
79729;BME280;69218;52.132;5.418;2023-11-21T00:32:57;101222.94;;;6.42;100.00
79729;BME280;69218;52.132;5.418;2023-11-21T00:35:24;101229.81;;;6.43;100.00
79729;BME280;69218;52.132;5.418;2023-11-21T00:37:51;101227.38;;;6.40;100.00
79729;BME280;69218;52.132;5.418;2023-11-21T00:40:18;101229.03;;;6.41;100.00
79729;BME280;69218;52.132;5.418;2023-11-21T00:42:48;101227.38;;;6.40;100.00
79729;BME280;69218;52.132;5.418;2023-11-21T00:45:15;101232.66;;;6.38;100.00
79729;BME280;69218;52.132;5.418;2023-11-21T00:47:42;101226.88;;;6.33;100.00
79729;BME280;69218;52.132;5.418;2023-11-21T00:50:09;101230.31;;;6.33;100.00
79729;BME280;69218;52.132;5.418;2023-11-21T00:52:36;101237.47;;;6.30;100.00
79729;BME280;69218;52.132;5.418;2023-11-21T00:55:04;101232.25;;;6.30;100.00
79729;BME280;69218;52.132;5.418;2023-11-21T00:57:31;101235.78;;;6.29;100.00
79729;BME280;69218;52.132;5.418;2023-11-21T00:59:57;101242.81;;;6.27;100.00
79729;BME280;69218;52.132;5.418;2023-11-21T01:02:23;101239.56;;;6.23;100.00
79729;BME280;69218;52.132;5.418;2023-11-21T01:04:51;101248.22;;;6.24;100.00
79729;BME280;69218;52.132;5.418;2023-11-21T01:07:18;101255.09;;;6.25;100.00
79729;BME280;69218;52.132;5.418;2023-11-21T01:09:47;101263.66;;;6.27;100.00
79729;BME280;69218;52.132;5.418;2023-11-21T01:12:13;101258.53;;;6.25;100.00
79729;BME280;69218;52.132;5.418;2023-11-21T01:14:40;101261.97;;;6.26;100.00
79729;BME280;69218;52.132;5.418;2023-11-21T01:17:07;101267.13;;;6.27;100.00
79729;BME280;69218;52.132;5.418;2023-11-21T01:19:33;101265.25;;;6.29;100.00
79729;BME280;69218;52.132;5.418;2023-11-21T01:22:00;101272.22;;;6.29;100.00
79729;BME280;69218;52.132;5.418;2023-11-21T01:24:26;101267.97;;;6.28;100.00
79729;BME280;69218;52.132;5.418;2023-11-21T01:26:53;101262.75;;;6.28;100.00
79729;BME280;69218;52.132;5.418;2023-11-21T01:29:19;101254.94;;;6.28;100.00
79729;BME280;69218;52.132;5.418;2023-11-21T01:31:46;101252.41;;;6.26;100.00
79729;BME280;69218;52.132;5.418;2023-11-21T01:34:13;101258.38;;;6.28;100.00
79729;BME280;69218;52.132;5.418;2023-11-21T01:36:40;101267.88;;;6.29;100.00
79729;BME280;69218;52.132;5.418;2023-11-21T01:39:07;101272.97;;;6.31;100.00
79729;BME280;69218;52.132;5.418;2023-11-21T01:41:35;101272.97;;;6.31;100.00
79729;BME280;69218;52.132;5.418;2023-11-21T01:44:02;101269.44;;;6.32;100.00
79729;BME280;69218;52.132;5.418;2023-11-21T01:46:28;101270.28;;;6.32;100.00
79729;BME280;69218;52.132;5.418;2023-11-21T01:48:57;101273.72;;;6.33;100.00
79729;BME280;69218;52.132;5.418;2023-11-21T01:51:23;101273.72;;;6.33;100.00
79729;BME280;69218;52.132;5.418;2023-11-21T01:53:50;101273.66;;;6.35;100.00
79729;BME280;69218;52.132;5.418;2023-11-21T01:56:17;101280.56;;;6.36;100.00
79729;BME280;69218;52.132;5.418;2023-11-21T01:58:44;101287.44;;;6.37;100.00
79729;BME280;69218;52.132;5.418;2023-11-21T02:01:13;101286.41;;;6.39;100.00
79729;BME280;69218;52.132;5.418;2023-11-21T02:03:40;101288.94;;;6.41;100.00
79729;BME280;69218;52.132;5.418;2023-11-21T02:06:07;101286.31;;;6.41;100.00
79729;BME280;69218;52.132;5.418;2023-11-21T02:08:35;101289.69;;;6.43;100.00
79729;BME280;69218;52.132;5.418;2023-11-21T02:11:05;101300.88;;;6.45;100.00
79729;BME280;69218;52.132;5.418;2023-11-21T02:13:32;101306.81;;;6.47;100.00
79729;BME280;69218;52.132;5.418;2023-11-21T02:15:59;101308.34;;;6.51;100.00
79729;BME280;69218;52.132;5.418;2023-11-21T02:18:29;101317.75;;;6.53;100.00
79729;BME280;69218;52.132;5.418;2023-11-21T02:20:56;101317.66;;;6.55;100.00
79729;BME280;69218;52.132;5.418;2023-11-21T02:23:22;101318.53;;;6.55;100.00
79729;BME280;69218;52.132;5.418;2023-11-21T02:25:49;101311.53;;;6.56;100.00
79729;BME280;69218;52.132;5.418;2023-11-21T02:28:16;101314.97;;;6.56;100.00
79729;BME280;69218;52.132;5.418;2023-11-21T02:30:52;101311.34;;;6.59;100.00
79729;BME280;69218;52.132;5.418;2023-11-21T02:33:23;101312.94;;;6.61;100.00
79729;BME280;69218;52.132;5.418;2023-11-21T02:35:49;101315.50;;;6.63;100.00
79729;BME280;69218;52.132;5.418;2023-11-21T02:38:17;101323.13;;;6.66;100.00
79729;BME280;69218;52.132;5.418;2023-11-21T02:40:44;101323.03;;;6.68;100.00
79729;BME280;69218;52.132;5.418;2023-11-21T02:43:11;101326.47;;;6.68;100.00
79729;BME280;69218;52.132;5.418;2023-11-21T02:45:38;101329.84;;;6.70;100.00
79729;BME280;69218;52.132;5.418;2023-11-21T02:48:04;101323.63;;;6.73;100.00
79729;BME280;69218;52.132;5.418;2023-11-21T02:50:32;101333.00;;;6.75;100.00
79729;BME280;69218;52.132;5.418;2023-11-21T02:52:59;101323.38;;;6.77;100.00
79729;BME280;69218;52.132;5.418;2023-11-21T02:55:27;101321.50;;;6.79;100.00
79729;BME280;69218;52.132;5.418;2023-11-21T02:57:54;101326.47;;;6.84;100.00
79729;BME280;69218;52.132;5.418;2023-11-21T03:00:23;101324.72;;;6.84;100.00
79729;BME280;69218;52.132;5.418;2023-11-21T03:02:50;101324.53;;;6.87;100.00
79729;BME280;69218;52.132;5.418;2023-11-21T03:05:17;101324.34;;;6.91;100.00
79729;BME280;69218;52.132;5.418;2023-11-21T03:07:44;101324.19;;;6.94;100.00
79729;BME280;69218;52.132;5.418;2023-11-21T03:10:10;101324.00;;;6.97;100.00
79729;BME280;69218;52.132;5.418;2023-11-21T03:12:38;101323.00;;;6.99;100.00
79729;BME280;69218;52.132;5.418;2023-11-21T03:15:08;101321.22;;;7.00;100.00
79729;BME280;69218;52.132;5.418;2023-11-21T03:17:35;101322.81;;;7.02;100.00
79729;BME280;69218;52.132;5.418;2023-11-21T03:20:02;101314.91;;;7.04;100.00
79729;BME280;69218;52.132;5.418;2023-11-21T03:22:30;101327.03;;;7.05;100.00
79729;BME280;69218;52.132;5.418;2023-11-21T03:24:56;101320.88;;;7.06;100.00
79729;BME280;69218;52.132;5.418;2023-11-21T03:27:23;101326.00;;;7.07;100.00
79729;BME280;69218;52.132;5.418;2023-11-21T03:29:49;101326.94;;;7.06;100.00
79729;BME280;69218;52.132;5.418;2023-11-21T03:32:17;101325.06;;;7.08;100.00
79729;BME280;69218;52.132;5.418;2023-11-21T03:34:54;101322.47;;;7.08;100.00
79729;BME280;69218;52.132;5.418;2023-11-21T03:37:22;101328.50;;;7.09;100.00
79729;BME280;69218;52.132;5.418;2023-11-21T03:39:49;101337.06;;;7.11;100.00
79729;BME280;69218;52.132;5.418;2023-11-21T03:42:15;101341.38;;;7.12;100.00
79729;BME280;69218;52.132;5.418;2023-11-21T03:44:42;101329.09;;;7.14;100.00
79729;BME280;69218;52.132;5.418;2023-11-21T03:47:08;101328.06;;;7.16;100.00
79729;BME280;69218;52.132;5.418;2023-11-21T03:49:35;101341.84;;;7.19;100.00
79729;BME280;69218;52.132;5.418;2023-11-21T03:52:02;101345.22;;;7.21;100.00
79729;BME280;69218;52.132;5.418;2023-11-21T03:54:28;101340.84;;;7.21;100.00
79729;BME280;69218;52.132;5.418;2023-11-21T03:56:55;101350.34;;;7.22;100.00
79729;BME280;69218;52.132;5.418;2023-11-21T03:59:22;101361.63;;;7.23;100.00
79729;BME280;69218;52.132;5.418;2023-11-21T04:01:50;101362.34;;;7.25;100.00
79729;BME280;69218;52.132;5.418;2023-11-21T04:04:17;101361.38;;;7.27;100.00
79729;BME280;69218;52.132;5.418;2023-11-21T04:06:44;101355.13;;;7.30;100.00
79729;BME280;69218;52.132;5.418;2023-11-21T04:09:10;101364.53;;;7.32;100.00
79729;BME280;69218;52.132;5.418;2023-11-21T04:11:37;101366.22;;;7.33;100.00
79729;BME280;69218;52.132;5.418;2023-11-21T04:14:03;101366.97;;;7.35;100.00
79729;BME280;69218;52.132;5.418;2023-11-21T04:16:30;101377.31;;;7.37;100.00
79729;BME280;69218;52.132;5.418;2023-11-21T04:18:56;101378.16;;;7.37;100.00
79729;BME280;69218;52.132;5.418;2023-11-21T04:21:23;101371.94;;;7.40;100.00
79729;BME280;69218;52.132;5.418;2023-11-21T04:23:50;101379.66;;;7.41;100.00
79729;BME280;69218;52.132;5.418;2023-11-21T04:26:16;101376.97;;;7.43;100.00
79729;BME280;69218;52.132;5.418;2023-11-21T04:28:43;101390.84;;;7.43;100.00
79729;BME280;69218;52.132;5.418;2023-11-21T04:31:09;101389.06;;;7.44;100.00
79729;BME280;69218;52.132;5.418;2023-11-21T04:33:36;101390.66;;;7.47;100.00
79729;BME280;69218;52.132;5.418;2023-11-21T04:36:03;101397.47;;;7.49;100.00
79729;BME280;69218;52.132;5.418;2023-11-21T04:38:29;101397.38;;;7.51;100.00
79729;BME280;69218;52.132;5.418;2023-11-21T04:40:56;101403.44;;;7.51;100.00
79729;BME280;69218;52.132;5.418;2023-11-21T04:43:24;101406.03;;;7.51;100.00
79729;BME280;69218;52.132;5.418;2023-11-21T04:45:51;101414.72;;;7.52;100.00
79729;BME280;69218;52.132;5.418;2023-11-21T04:48:17;101413.78;;;7.53;100.00
79729;BME280;69218;52.132;5.418;2023-11-21T04:50:44;101415.38;;;7.55;100.00
79729;BME280;69218;52.132;5.418;2023-11-21T04:53:10;101417.81;;;7.58;100.00
79729;BME280;69218;52.132;5.418;2023-11-21T04:55:42;101415.88;;;7.62;100.00
79729;BME280;69218;52.132;5.418;2023-11-21T04:58:10;101401.06;;;7.62;100.00
79729;BME280;69218;52.132;5.418;2023-11-21T05:00:37;101407.94;;;7.63;100.00
79729;BME280;69218;52.132;5.418;2023-11-21T05:03:04;101409.72;;;7.63;100.00
79729;BME280;69218;52.132;5.418;2023-11-21T05:05:32;101408.78;;;7.64;100.00
79729;BME280;69218;52.132;5.418;2023-11-21T05:07:58;101418.28;;;7.65;100.00
79729;BME280;69218;52.132;5.418;2023-11-21T05:10:25;101417.25;;;7.67;100.00
79729;BME280;69218;52.132;5.418;2023-11-21T05:12:51;101428.53;;;7.68;100.00
79729;BME280;69218;52.132;5.418;2023-11-21T05:15:18;101430.25;;;7.69;100.00
79729;BME280;69218;52.132;5.418;2023-11-21T05:17:45;101432.75;;;7.70;100.00
79729;BME280;69218;52.132;5.418;2023-11-21T05:20:13;101441.22;;;7.74;100.00
79729;BME280;69218;52.132;5.418;2023-11-21T05:22:40;101437.69;;;7.75;100.00
79729;BME280;69218;52.132;5.418;2023-11-21T05:25:09;101444.63;;;7.76;100.00
79729;BME280;69218;52.132;5.418;2023-11-21T05:27:36;101438.47;;;7.77;100.00
79729;BME280;69218;52.132;5.418;2023-11-21T05:30:03;101439.31;;;7.78;100.00
79729;BME280;69218;52.132;5.418;2023-11-21T05:32:33;101438.47;;;7.77;100.00
79729;BME280;69218;52.132;5.418;2023-11-21T05:35:00;101434.81;;;7.80;100.00
79729;BME280;69218;52.132;5.418;2023-11-21T05:37:27;101445.94;;;7.83;100.00
79729;BME280;69218;52.132;5.418;2023-11-21T05:39:54;101450.22;;;7.84;100.00
79729;BME280;69218;52.132;5.418;2023-11-21T05:42:23;101445.75;;;7.86;100.00
79729;BME280;69218;52.132;5.418;2023-11-21T05:44:51;101458.69;;;7.88;100.00
79729;BME280;69218;52.132;5.418;2023-11-21T05:47:17;101462.16;;;7.88;100.00
79729;BME280;69218;52.132;5.418;2023-11-21T05:49:44;101462.00;;;7.91;100.00
79729;BME280;69218;52.132;5.418;2023-11-21T05:52:12;101461.91;;;7.93;100.00
79729;BME280;69218;52.132;5.418;2023-11-21T05:54:38;101460.97;;;7.94;100.00
79729;BME280;69218;52.132;5.418;2023-11-21T05:57:05;101475.53;;;7.98;100.00
79729;BME280;69218;52.132;5.418;2023-11-21T05:59:31;101472.81;;;7.99;100.00
79729;BME280;69218;52.132;5.418;2023-11-21T06:01:57;101476.16;;;8.02;100.00
79729;BME280;69218;52.132;5.418;2023-11-21T06:04:25;101480.38;;;8.04;100.00
79729;BME280;69218;52.132;5.418;2023-11-21T06:06:52;101471.63;;;8.05;100.00
79729;BME280;69218;52.132;5.418;2023-11-21T06:09:21;101482.81;;;8.07;100.00
79729;BME280;69218;52.132;5.418;2023-11-21T06:11:48;101491.56;;;8.06;100.00
79729;BME280;69218;52.132;5.418;2023-11-21T06:14:14;101498.38;;;8.09;100.00
79729;BME280;69218;52.132;5.418;2023-11-21T06:16:44;101499.88;;;8.13;100.00
79729;BME280;69218;52.132;5.418;2023-11-21T06:19:11;101500.81;;;8.12;100.00
79729;BME280;69218;52.132;5.418;2023-11-21T06:21:38;101499.69;;;8.16;100.00
79729;BME280;69218;52.132;5.418;2023-11-21T06:24:05;101505.69;;;8.18;100.00
79729;BME280;69218;52.132;5.418;2023-11-21T06:26:31;101500.38;;;8.19;100.00
79729;BME280;69218;52.132;5.418;2023-11-21T06:28:58;101507.19;;;8.22;100.00
79729;BME280;69218;52.132;5.418;2023-11-21T06:31:25;101506.25;;;8.23;100.00
79729;BME280;69218;52.132;5.418;2023-11-21T06:33:52;101511.38;;;8.24;100.00
79729;BME280;69218;52.132;5.418;2023-11-21T06:36:19;101507.84;;;8.25;100.00
79729;BME280;69218;52.132;5.418;2023-11-21T06:38:45;101522.38;;;8.30;100.00
79729;BME280;69218;52.132;5.418;2023-11-21T06:41:13;101521.44;;;8.31;100.00
79729;BME280;69218;52.132;5.418;2023-11-21T06:43:41;101518.78;;;8.32;100.00
79729;BME280;69218;52.132;5.418;2023-11-21T06:46:10;101516.91;;;8.34;100.00
79729;BME280;69218;52.132;5.418;2023-11-21T06:48:37;101519.44;;;8.36;100.00
79729;BME280;69218;52.132;5.418;2023-11-21T06:51:05;101515.81;;;8.38;100.00
79729;BME280;69218;52.132;5.418;2023-11-21T06:53:31;101527.13;;;8.39;100.00
79729;BME280;69218;52.132;5.418;2023-11-21T06:55:59;101521.81;;;8.40;100.00
79729;BME280;69218;52.132;5.418;2023-11-21T06:58:26;101532.06;;;8.43;100.00
79729;BME280;69218;52.132;5.418;2023-11-21T07:00:52;101531.97;;;8.45;100.00
79729;BME280;69218;52.132;5.418;2023-11-21T07:03:21;101544.75;;;8.49;100.00
79729;BME280;69218;52.132;5.418;2023-11-21T07:05:48;101549.78;;;8.52;100.00
79729;BME280;69218;52.132;5.418;2023-11-21T07:08:14;101554.84;;;8.56;100.00
79729;BME280;69218;52.132;5.418;2023-11-21T07:10:41;101552.97;;;8.58;100.00
79729;BME280;69218;52.132;5.418;2023-11-21T07:13:07;101556.25;;;8.61;100.00
79729;BME280;69218;52.132;5.418;2023-11-21T07:15:37;101557.00;;;8.63;100.00
79729;BME280;69218;52.132;5.418;2023-11-21T07:18:04;101556.91;;;8.65;100.00
79729;BME280;69218;52.132;5.418;2023-11-21T07:20:34;101563.75;;;8.67;100.00
79729;BME280;69218;52.132;5.418;2023-11-21T07:23:00;101573.91;;;8.72;100.00
79729;BME280;69218;52.132;5.418;2023-11-21T07:25:27;101575.56;;;8.73;100.00
79729;BME280;69218;52.132;5.418;2023-11-21T07:27:53;101581.63;;;8.73;100.00
79729;BME280;69218;52.132;5.418;2023-11-21T07:30:21;101585.03;;;8.75;100.00
79729;BME280;69218;52.132;5.418;2023-11-21T07:32:49;101584.81;;;8.78;100.00
79729;BME280;69218;52.132;5.418;2023-11-21T07:35:15;101584.72;;;8.80;100.00
79729;BME280;69218;52.132;5.418;2023-11-21T07:37:42;101581.19;;;8.81;100.00
79729;BME280;69218;52.132;5.418;2023-11-21T07:40:09;101580.34;;;8.80;100.00
79729;BME280;69218;52.132;5.418;2023-11-21T07:42:37;101589.69;;;8.85;100.00
79729;BME280;69218;52.132;5.418;2023-11-21T07:45:05;101584.25;;;8.88;100.00
79729;BME280;69218;52.132;5.418;2023-11-21T07:47:33;101590.25;;;8.90;100.00
79729;BME280;69218;52.132;5.418;2023-11-21T07:50:02;101594.44;;;8.92;100.00
79729;BME280;69218;52.132;5.418;2023-11-21T07:52:29;101596.03;;;8.95;100.00
79729;BME280;69218;52.132;5.418;2023-11-21T07:54:56;101608.94;;;8.98;100.00
79729;BME280;69218;52.132;5.418;2023-11-21T07:57:22;101608.19;;;8.96;100.00
79729;BME280;69218;52.132;5.418;2023-11-21T07:59:49;101608.72;;;9.01;100.00
79729;BME280;69218;52.132;5.418;2023-11-21T08:02:15;101612.84;;;9.05;100.00
79729;BME280;69218;52.132;5.418;2023-11-21T08:04:44;101625.72;;;9.08;100.00
79729;BME280;69218;52.132;5.418;2023-11-21T08:07:11;101632.38;;;9.14;100.00
79729;BME280;69218;52.132;5.418;2023-11-21T08:09:37;101635.66;;;9.17;100.00
79729;BME280;69218;52.132;5.418;2023-11-21T08:12:04;101637.97;;;9.22;100.00
79729;BME280;69218;52.132;5.418;2023-11-21T08:14:31;101644.81;;;9.24;100.00
79729;BME280;69218;52.132;5.418;2023-11-21T08:16:57;101653.31;;;9.28;100.00
79729;BME280;69218;52.132;5.418;2023-11-21T08:19:24;101663.59;;;9.31;100.00
79729;BME280;69218;52.132;5.418;2023-11-21T08:21:54;101660.03;;;9.32;100.00
79729;BME280;69218;52.132;5.418;2023-11-21T08:24:21;101669.47;;;9.34;100.00
79729;BME280;69218;52.132;5.418;2023-11-21T08:26:49;101673.50;;;9.40;100.00
79729;BME280;69218;52.132;5.418;2023-11-21T08:29:17;101661.25;;;9.41;100.00
79729;BME280;69218;52.132;5.418;2023-11-21T08:31:44;101675.91;;;9.43;100.00
79729;BME280;69218;52.132;5.418;2023-11-21T08:34:13;101678.44;;;9.45;100.00
79729;BME280;69218;52.132;5.418;2023-11-21T08:36:42;101690.66;;;9.44;100.00
79729;BME280;69218;52.132;5.418;2023-11-21T08:39:09;101699.38;;;9.45;100.00
79729;BME280;69218;52.132;5.418;2023-11-21T08:41:36;101698.53;;;9.44;100.00
79729;BME280;69218;52.132;5.418;2023-11-21T08:44:03;101706.28;;;9.46;100.00
79729;BME280;69218;52.132;5.418;2023-11-21T08:46:33;101709.66;;;9.48;100.00
79729;BME280;69218;52.132;5.418;2023-11-21T08:49:03;101711.22;;;9.50;100.00
79729;BME280;69218;52.132;5.418;2023-11-21T08:51:29;101720.59;;;9.54;100.00
79729;BME280;69218;52.132;5.418;2023-11-21T08:53:59;101713.47;;;9.56;100.00
79729;BME280;69218;52.132;5.418;2023-11-21T08:56:27;101719.56;;;9.57;100.00
79729;BME280;69218;52.132;5.418;2023-11-21T08:58:53;101719.47;;;9.58;100.00
79729;BME280;69218;52.132;5.418;2023-11-21T09:01:20;101712.38;;;9.60;100.00
79729;BME280;69218;52.132;5.418;2023-11-21T09:03:47;101717.22;;;9.67;100.00
79729;BME280;69218;52.132;5.418;2023-11-21T09:06:15;101722.09;;;9.73;100.00
79729;BME280;69218;52.132;5.418;2023-11-21T09:08:41;101735.34;;;9.84;100.00
79729;BME280;69218;52.132;5.418;2023-11-21T09:11:08;101737.38;;;9.93;100.00
79729;BME280;69218;52.132;5.418;2023-11-21T09:13:35;101745.22;;;9.93;100.00
79729;BME280;69218;52.132;5.418;2023-11-21T09:16:02;101748.41;;;9.98;100.00
79729;BME280;69218;52.132;5.418;2023-11-21T09:18:29;101756.16;;;10.00;100.00
79729;BME280;69218;52.132;5.418;2023-11-21T09:20:58;101757.13;;;9.99;100.00
79729;BME280;69218;52.132;5.418;2023-11-21T09:23:25;101754.59;;;9.97;100.00
79729;BME280;69218;52.132;5.418;2023-11-21T09:25:52;101763.50;;;9.95;100.00
79729;BME280;69218;52.132;5.418;2023-11-21T09:28:23;101766.00;;;9.96;100.00
79729;BME280;69218;52.132;5.418;2023-11-21T09:30:49;101772.00;;;9.98;100.00
79729;BME280;69218;52.132;5.418;2023-11-21T09:33:17;101772.19;;;9.95;100.00
79729;BME280;69218;52.132;5.418;2023-11-21T09:35:43;101777.50;;;9.94;100.00
79729;BME280;69218;52.132;5.418;2023-11-21T09:38:10;101782.09;;;9.90;100.00
79729;BME280;69218;52.132;5.418;2023-11-21T09:40:37;101793.63;;;9.87;100.00
79729;BME280;69218;52.132;5.418;2023-11-21T09:43:16;101798.75;;;9.89;100.00
79729;BME280;69218;52.132;5.418;2023-11-21T09:45:54;101802.31;;;9.88;100.00
79729;BME280;69218;52.132;5.418;2023-11-21T09:48:24;101807.63;;;9.86;100.00
79729;BME280;69218;52.132;5.418;2023-11-21T09:50:53;101817.25;;;9.86;100.00
79729;BME280;69218;52.132;5.418;2023-11-21T09:53:21;101821.03;;;9.82;100.00
79729;BME280;69218;52.132;5.418;2023-11-21T09:55:52;101819.50;;;9.78;100.00
79729;BME280;69218;52.132;5.418;2023-11-21T09:58:20;101818.56;;;9.79;100.00
79729;BME280;69218;52.132;5.418;2023-11-21T10:00:49;101829.88;;;9.79;100.00
79729;BME280;69218;52.132;5.418;2023-11-21T10:03:17;101824.00;;;9.76;100.00
79729;BME280;69218;52.132;5.418;2023-11-21T10:05:45;101834.56;;;9.74;100.00
79729;BME280;69218;52.132;5.418;2023-11-21T10:08:13;101826.72;;;9.74;100.00
79729;BME280;69218;52.132;5.418;2023-11-21T10:10:43;101830.44;;;9.70;100.00
79729;BME280;69218;52.132;5.418;2023-11-21T10:13:12;101833.91;;;9.71;100.00
79729;BME280;69218;52.132;5.418;2023-11-21T10:15:42;101839.97;;;9.71;100.00
79729;BME280;69218;52.132;5.418;2023-11-21T10:18:16;101845.06;;;9.74;100.00
79729;BME280;69218;52.132;5.418;2023-11-21T10:20:44;101850.09;;;9.77;100.00
79729;BME280;69218;52.132;5.418;2023-11-21T10:23:13;101860.09;;;9.85;100.00
79729;BME280;69218;52.132;5.418;2023-11-21T10:25:40;101864.13;;;9.90;100.00
79729;BME280;69218;52.132;5.418;2023-11-21T10:28:09;101866.66;;;9.92;100.00
79729;BME280;69218;52.132;5.418;2023-11-21T10:30:38;101874.41;;;9.94;100.00
79729;BME280;69218;52.132;5.418;2023-11-21T10:33:05;101866.38;;;9.97;100.00
79729;BME280;69218;52.132;5.418;2023-11-21T10:35:48;101869.16;;;9.94;100.00
79729;BME280;69218;52.132;5.418;2023-11-21T10:38:17;101880.69;;;9.91;100.00
79729;BME280;69218;52.132;5.418;2023-11-21T10:40:44;101883.66;;;9.85;100.00
79729;BME280;69218;52.132;5.418;2023-11-21T10:43:13;101894.44;;;9.80;100.00
79729;BME280;69218;52.132;5.418;2023-11-21T10:45:42;101896.38;;;9.77;100.00
79729;BME280;69218;52.132;5.418;2023-11-21T10:48:10;101905.28;;;9.74;100.00
79729;BME280;69218;52.132;5.418;2023-11-21T10:50:38;101916.59;;;9.75;100.00
79729;BME280;69218;52.132;5.418;2023-11-21T10:53:05;101913.13;;;9.74;100.00
79729;BME280;69218;52.132;5.418;2023-11-21T10:55:33;101918.53;;;9.71;100.00
79729;BME280;69218;52.132;5.418;2023-11-21T10:58:04;101924.78;;;9.69;100.00
79729;BME280;69218;52.132;5.418;2023-11-21T11:00:34;101931.63;;;9.71;100.00
79729;BME280;69218;52.132;5.418;2023-11-21T11:03:02;101935.25;;;9.69;100.00
79729;BME280;69218;52.132;5.418;2023-11-21T11:05:29;101927.59;;;9.66;100.00
79729;BME280;69218;52.132;5.418;2023-11-21T11:08:08;101930.88;;;9.69;100.00
79729;BME280;69218;52.132;5.418;2023-11-21T11:10:35;101929.69;;;9.75;100.00
79729;BME280;69218;52.132;5.418;2023-11-21T11:13:03;101926.97;;;9.76;100.00
79729;BME280;69218;52.132;5.418;2023-11-21T11:15:30;101925.28;;;9.75;100.00
79729;BME280;69218;52.132;5.418;2023-11-21T11:17:57;101924.44;;;9.75;100.00
79729;BME280;69218;52.132;5.418;2023-11-21T11:20:29;101924.44;;;9.75;100.00
79729;BME280;69218;52.132;5.418;2023-11-21T11:26:20;101927.06;;;9.75;100.00
79729;BME280;69218;52.132;5.418;2023-11-21T11:34:36;101939.84;;;9.79;100.00
79729;BME280;69218;52.132;5.418;2023-11-21T11:37:07;101940.72;;;9.80;100.00
79729;BME280;69218;52.132;5.418;2023-11-21T11:42:07;101947.28;;;9.87;100.00
79729;BME280;69218;52.132;5.418;2023-11-21T11:47:16;101956.25;;;9.83;100.00
79729;BME280;69218;52.132;5.418;2023-11-21T11:50:07;101949.13;;;9.85;100.00
79729;BME280;69218;52.132;5.418;2023-11-21T11:52:42;101959.50;;;9.86;100.00
79729;BME280;69218;52.132;5.418;2023-11-21T11:55:11;101964.75;;;9.86;100.00
79729;BME280;69218;52.132;5.418;2023-11-21T11:57:41;101963.91;;;9.86;100.00
79729;BME280;69218;52.132;5.418;2023-11-21T12:02:46;101969.25;;;9.84;100.00
79729;BME280;69218;52.132;5.418;2023-11-21T12:05:15;101983.38;;;9.82;100.00
79729;BME280;69218;52.132;5.418;2023-11-21T12:07:58;101985.06;;;9.83;100.00
79729;BME280;69218;52.132;5.418;2023-11-21T12:10:27;101990.38;;;9.81;100.00
79729;BME280;69218;52.132;5.418;2023-11-21T12:12:58;101986.75;;;9.84;100.00
79729;BME280;69218;52.132;5.418;2023-11-21T12:15:25;101985.06;;;9.83;100.00
79729;BME280;69218;52.132;5.418;2023-11-21T12:17:53;101990.03;;;9.87;100.00
79729;BME280;69218;52.132;5.418;2023-11-21T12:20:22;101995.34;;;9.86;100.00
79729;BME280;69218;52.132;5.418;2023-11-21T12:22:56;101996.28;;;9.85;100.00
79729;BME280;69218;52.132;5.418;2023-11-21T12:25:29;101997.41;;;9.81;100.00
79729;BME280;69218;52.132;5.418;2023-11-21T12:27:59;101998.50;;;9.77;100.00
79729;BME280;69218;52.132;5.418;2023-11-21T12:30:27;102001.22;;;9.75;100.00
79729;BME280;69218;52.132;5.418;2023-11-21T12:32:58;101999.53;;;9.74;100.00
79729;BME280;69218;52.132;5.418;2023-11-21T12:35:27;101998.69;;;9.74;100.00
79729;BME280;69218;52.132;5.418;2023-11-21T12:37:55;101998.59;;;9.75;100.00
79729;BME280;69218;52.132;5.418;2023-11-21T12:40:23;101996.13;;;9.72;100.00
79729;BME280;69218;52.132;5.418;2023-11-21T12:42:52;102007.53;;;9.71;100.00
79729;BME280;69218;52.132;5.418;2023-11-21T12:45:24;102009.22;;;9.72;100.00
79729;BME280;69218;52.132;5.418;2023-11-21T12:48:05;102011.00;;;9.72;100.00
79729;BME280;69218;52.132;5.418;2023-11-21T12:50:38;102010.94;;;9.73;100.00
79729;BME280;69218;52.132;5.418;2023-11-21T12:53:07;102012.72;;;9.73;100.00
79729;BME280;69218;52.132;5.418;2023-11-21T12:55:39;102022.50;;;9.69;100.00
79729;BME280;69218;52.132;5.418;2023-11-21T12:58:09;102028.59;;;9.70;100.00
79729;BME280;69218;52.132;5.418;2023-11-21T13:00:46;102037.47;;;9.67;100.00
79729;BME280;69218;52.132;5.418;2023-11-21T13:03:14;102030.38;;;9.69;100.00
79729;BME280;69218;52.132;5.418;2023-11-21T13:05:47;102033.66;;;9.73;100.00
79729;BME280;69218;52.132;5.418;2023-11-21T13:08:20;102041.81;;;9.82;100.00
79729;BME280;69218;52.132;5.418;2023-11-21T13:10:50;102037.25;;;9.86;100.00